createdAt,value
2022-11-12T00:04:25.781Z,11.90
2022-11-12T00:09:47.878Z,11.90
2022-11-12T00:15:11.394Z,11.90
2022-11-12T00:20:34.079Z,12.00
2022-11-12T00:26:01.291Z,12.00
2022-11-12T00:31:23.382Z,12.10
2022-11-12T00:36:45.725Z,12.00
2022-11-12T00:42:07.833Z,12.00
2022-11-12T00:47:29.932Z,12.00
2022-11-12T00:52:53.622Z,12.00
2022-11-12T00:58:15.687Z,11.90
2022-11-12T01:03:39.360Z,11.90
2022-11-12T01:09:01.636Z,11.90
2022-11-12T01:14:23.790Z,11.90
2022-11-12T01:19:45.986Z,12.00
2022-11-12T01:25:08.335Z,11.90
2022-11-12T01:30:30.518Z,11.90
2022-11-12T01:35:52.647Z,11.90
2022-11-12T01:41:19.385Z,11.90
2022-11-12T01:52:03.015Z,11.90
2022-11-12T01:57:34.768Z,11.90
2022-11-12T02:03:00.736Z,11.90
2022-11-12T02:08:24.587Z,11.90
2022-11-12T02:14:05.295Z,11.90
2022-11-12T02:19:27.574Z,11.80
2022-11-12T02:24:49.691Z,11.90
2022-11-12T02:30:12.432Z,11.90
2022-11-12T02:35:34.838Z,11.80
2022-11-12T02:40:56.946Z,11.70
2022-11-12T02:46:19.280Z,11.60
2022-11-12T02:51:41.484Z,11.70
2022-11-12T02:57:03.851Z,11.60
2022-11-12T03:02:25.973Z,11.60
2022-11-12T03:07:48.159Z,11.60
2022-11-12T03:13:10.322Z,11.70
2022-11-12T03:18:32.445Z,11.70
2022-11-12T03:23:54.541Z,11.80
2022-11-12T03:29:16.808Z,11.80
2022-11-12T03:34:38.905Z,11.80
2022-11-12T03:40:01.009Z,11.80
2022-11-12T03:45:25.931Z,11.80
2022-11-12T03:50:48.083Z,11.70
2022-11-12T03:56:10.223Z,11.60
2022-11-12T04:01:33.278Z,11.60
2022-11-12T04:07:15.383Z,11.60
2022-11-12T04:12:57.495Z,11.60
2022-11-12T04:18:39.505Z,11.50
2022-11-12T04:24:01.602Z,11.60
2022-11-12T04:29:43.821Z,11.50
2022-11-12T04:35:08.672Z,11.60
2022-11-12T04:40:51.430Z,11.60
2022-11-12T04:46:13.634Z,11.60
2022-11-12T04:51:55.669Z,11.50
2022-11-12T04:57:17.834Z,11.60
2022-11-12T05:02:40.073Z,11.50
2022-11-12T05:08:03.258Z,11.40
2022-11-12T05:13:25.411Z,11.50
2022-11-12T05:18:47.518Z,11.50
2022-11-12T05:24:22.507Z,11.60
2022-11-12T05:29:51.897Z,11.60
2022-11-12T05:35:14.183Z,11.70
2022-11-12T05:40:36.267Z,11.50
2022-11-12T05:45:58.409Z,11.60
2022-11-12T05:51:20.503Z,11.70
2022-11-12T05:56:42.627Z,11.80
2022-11-12T06:02:04.805Z,11.70
2022-11-12T06:07:26.994Z,11.80
2022-11-12T06:12:49.205Z,11.90
2022-11-12T06:18:11.557Z,11.90
2022-11-12T06:23:34.147Z,12.00
2022-11-12T06:28:56.535Z,12.00
2022-11-12T06:34:18.653Z,12.10
2022-11-12T06:39:40.786Z,12.10
2022-11-12T06:45:03.112Z,12.20
2022-11-12T06:50:25.417Z,12.20
2022-11-12T06:55:47.558Z,12.00
2022-11-12T07:01:13.927Z,12.20
2022-11-12T07:06:37.288Z,12.20
2022-11-12T07:11:59.438Z,12.30
2022-11-12T07:17:21.547Z,12.30
2022-11-12T07:22:43.795Z,12.40
2022-11-12T07:28:06.050Z,12.30
2022-11-12T07:33:29.609Z,12.30
2022-11-12T07:38:55.375Z,12.40
2022-11-12T07:44:17.486Z,12.40
2022-11-12T07:49:40.182Z,12.30
2022-11-12T07:55:02.574Z,12.40
2022-11-12T08:00:24.862Z,12.50
2022-11-12T08:05:47.141Z,12.60
2022-11-12T08:11:09.333Z,12.90
2022-11-12T08:16:31.586Z,13.00
2022-11-12T08:21:53.702Z,13.30
2022-11-12T08:27:15.783Z,13.40
2022-11-12T08:32:38.100Z,13.30
2022-11-12T08:38:02.144Z,13.20
2022-11-12T08:43:24.449Z,13.40
2022-11-12T08:48:46.874Z,13.50
2022-11-12T08:54:09.109Z,13.40
2022-11-12T08:59:31.198Z,13.50
2022-11-12T09:04:53.293Z,13.70
2022-11-12T09:10:15.679Z,14.00
2022-11-12T09:15:38.963Z,14.50
2022-11-12T09:21:03.932Z,14.70
2022-11-12T09:26:26.023Z,15.20
2022-11-12T09:31:48.157Z,15.40
2022-11-12T09:37:10.315Z,15.40
2022-11-12T09:42:36.438Z,15.10
2022-11-12T09:48:03.307Z,15.10
2022-11-12T09:53:37.087Z,14.70
2022-11-12T09:59:01.251Z,14.60
2022-11-12T10:16:03.539Z,13.80
2022-11-12T10:32:16.693Z,15.20
2022-11-12T10:37:57.283Z,15.30
2022-11-12T10:48:34.533Z,15.50
2022-11-12T10:53:58.575Z,16.00
2022-11-12T10:59:25.733Z,16.20
2022-11-12T11:04:48.902Z,16.20
2022-11-12T11:15:34.613Z,16.40
2022-11-12T11:42:47.824Z,16.20
2022-11-12T11:53:43.295Z,16.30
2022-11-12T12:04:44.989Z,16.40
2022-11-12T12:21:12.045Z,16.30
2022-11-12T12:26:48.581Z,16.40
2022-11-12T12:32:21.715Z,16.20
2022-11-12T12:37:52.951Z,16.00
2022-11-12T12:43:24.802Z,15.90
2022-11-12T12:48:48.607Z,15.90
2022-11-12T12:59:47.999Z,15.80
2022-11-12T13:15:49.268Z,15.50
2022-11-12T13:21:21.030Z,15.30
2022-11-12T13:32:36.118Z,15.20
2022-11-12T13:38:17.660Z,15.20
2022-11-12T13:43:43.174Z,15.10
2022-11-12T13:49:10.377Z,15.10
2022-11-12T13:59:42.160Z,15.00
2022-11-12T14:05:14.702Z,15.00
2022-11-12T14:21:06.888Z,15.00
2022-11-12T14:26:44.910Z,14.90
2022-11-12T14:32:09.837Z,14.70
2022-11-12T14:37:42.636Z,14.80
2022-11-12T14:43:06.244Z,14.70
2022-11-12T14:48:29.566Z,14.60
2022-11-12T14:53:58.722Z,14.50
2022-11-12T14:59:21.178Z,14.50
2022-11-12T15:04:51.167Z,14.40
2022-11-12T15:26:24.050Z,14.00
2022-11-12T15:31:50.498Z,13.90
2022-11-12T15:42:39.793Z,13.90
2022-11-12T15:48:01.958Z,13.80
2022-11-12T15:53:24.224Z,13.90
2022-11-12T15:58:46.555Z,14.00
2022-11-12T16:04:09.475Z,13.90
2022-11-12T16:09:31.569Z,13.90
2022-11-12T16:14:53.765Z,13.90
2022-11-12T16:20:21.410Z,13.90
2022-11-12T16:25:44.329Z,14.00
2022-11-12T16:31:06.888Z,14.00
2022-11-12T16:36:29.296Z,14.00
2022-11-12T16:41:51.408Z,13.90
2022-11-12T16:47:13.681Z,13.80
2022-11-12T16:52:35.807Z,13.80
2022-11-12T16:57:57.906Z,13.80
2022-11-12T17:03:20.046Z,13.80
2022-11-12T17:08:42.438Z,13.80
2022-11-12T17:14:06.188Z,13.80
2022-11-12T17:19:28.373Z,13.80
2022-11-12T17:24:50.656Z,13.70
2022-11-12T17:30:13.237Z,13.70
2022-11-12T17:35:35.965Z,13.60
2022-11-12T17:40:59.158Z,13.60
2022-11-12T17:46:21.322Z,13.70
2022-11-12T17:51:43.445Z,13.70
2022-11-12T17:57:05.567Z,13.60
2022-11-12T18:02:27.842Z,13.60
2022-11-12T18:07:50.267Z,13.60
2022-11-12T18:13:12.388Z,13.60
2022-11-12T18:18:34.598Z,13.50
2022-11-12T18:23:56.747Z,13.60
2022-11-12T18:29:18.904Z,13.40
2022-11-12T18:34:45.219Z,13.40
2022-11-12T18:40:08.005Z,13.50
2022-11-12T18:45:30.252Z,13.50
2022-11-12T18:50:52.732Z,13.50
2022-11-12T18:56:17.991Z,13.50
2022-11-12T19:01:40.455Z,13.50
2022-11-12T19:07:02.908Z,13.60
2022-11-12T19:12:25.476Z,13.50
2022-11-12T19:17:47.713Z,13.60
2022-11-12T19:23:10.068Z,13.70
2022-11-12T19:28:32.915Z,13.70
2022-11-12T19:33:55.307Z,13.80
2022-11-12T19:39:17.499Z,13.80
2022-11-12T19:44:40.063Z,13.70
2022-11-12T19:50:02.418Z,13.70
2022-11-12T19:55:25.818Z,13.70
2022-11-12T20:00:47.995Z,13.70
2022-11-12T20:06:14.593Z,13.60
2022-11-12T20:11:37.010Z,13.50
2022-11-12T20:16:59.136Z,13.50
2022-11-12T20:22:21.394Z,13.50
2022-11-12T20:27:43.543Z,13.60
2022-11-12T20:33:05.884Z,13.50
2022-11-12T20:38:28.846Z,13.50
2022-11-12T20:43:54.061Z,13.40
2022-11-12T20:49:16.329Z,13.50
2022-11-12T20:54:38.517Z,13.50
2022-11-12T21:00:00.674Z,13.50
2022-11-12T21:05:22.973Z,13.50
2022-11-12T21:10:49.357Z,13.50
2022-11-12T21:16:12.813Z,13.50
2022-11-12T21:21:35.060Z,13.60
2022-11-12T21:27:05.237Z,13.60
2022-11-12T21:32:27.449Z,13.50
2022-11-12T21:37:49.760Z,13.40
2022-11-12T21:43:11.917Z,13.50
2022-11-12T21:48:34.632Z,13.50
2022-11-12T21:53:58.746Z,13.50
2022-11-12T21:59:20.839Z,13.50
2022-11-12T22:04:48.416Z,13.50
2022-11-12T22:10:10.601Z,13.40
2022-11-12T22:15:32.671Z,13.50
2022-11-12T22:20:59.496Z,13.40
2022-11-12T22:26:25.325Z,13.40
2022-11-12T22:31:47.470Z,13.40
2022-11-12T22:37:09.890Z,13.40
2022-11-12T22:42:32.030Z,13.40
2022-11-12T22:47:54.330Z,13.30
2022-11-12T22:53:16.439Z,13.40
2022-11-12T22:58:40.477Z,13.30
2022-11-12T23:04:05.931Z,13.30
2022-11-12T23:09:28.067Z,13.40
2022-11-12T23:14:51.340Z,13.30
2022-11-12T23:20:13.560Z,13.40
2022-11-12T23:25:36.011Z,13.40
2022-11-12T23:30:58.495Z,13.50
2022-11-12T23:36:21.697Z,13.50
2022-11-12T23:41:43.862Z,13.60
2022-11-12T23:47:06.143Z,13.60
2022-11-12T23:52:28.313Z,13.50
2022-11-12T23:57:53.183Z,13.60
